createdAt,value
2023-02-28T00:00:10.085Z,10.05
2023-02-28T00:02:37.847Z,6.43
2023-02-28T00:05:05.917Z,6.18
2023-02-28T00:07:33.519Z,7.07
2023-02-28T00:10:01.207Z,7.13
2023-02-28T00:12:30.141Z,8.68
2023-02-28T00:14:57.662Z,5.60
2023-02-28T00:17:25.272Z,6.82
2023-02-28T00:19:53.365Z,9.35
2023-02-28T00:22:22.007Z,7.22
2023-02-28T00:24:49.525Z,7.65
2023-02-28T00:27:16.975Z,8.85
2023-02-28T00:29:45.791Z,7.95
2023-02-28T00:32:13.346Z,5.95
2023-02-28T00:34:40.915Z,6.40
2023-02-28T00:37:09.069Z,7.28
2023-02-28T00:39:37.455Z,5.07
2023-02-28T00:42:05.620Z,8.70
2023-02-28T00:44:33.272Z,7.68
2023-02-28T00:47:02.360Z,7.18
2023-02-28T00:49:29.866Z,6.40
2023-02-28T00:51:57.931Z,6.20
2023-02-28T00:54:25.941Z,7.63
2023-02-28T00:56:53.549Z,8.88
2023-02-28T00:59:21.255Z,6.00
2023-02-28T01:01:49.088Z,5.85
2023-02-28T01:04:18.079Z,6.50
2023-02-28T01:06:45.925Z,5.90
2023-02-28T01:09:13.423Z,6.22
2023-02-28T01:11:42.534Z,6.65
2023-02-28T01:14:10.687Z,6.80
2023-02-28T01:16:38.225Z,8.02
2023-02-28T01:19:05.699Z,8.80
2023-02-28T01:21:35.819Z,7.30
2023-02-28T01:24:03.828Z,6.07
2023-02-28T01:26:31.608Z,6.82
2023-02-28T01:28:59.370Z,6.40
2023-02-28T01:31:27.312Z,7.65
2023-02-28T01:33:55.076Z,6.18
2023-02-28T01:36:23.478Z,8.85
2023-02-28T01:38:52.673Z,7.43
2023-02-28T01:41:21.378Z,8.88
2023-02-28T01:43:56.646Z,8.07
2023-02-28T01:46:24.322Z,7.95
2023-02-28T01:48:53.644Z,7.78
2023-02-28T01:51:23.033Z,6.95
2023-02-28T01:53:54.893Z,5.88
2023-02-28T01:56:26.331Z,7.93
2023-02-28T01:58:55.011Z,7.50
2023-02-28T02:01:23.303Z,9.55
2023-02-28T02:03:56.086Z,7.55
2023-02-28T02:06:24.292Z,8.70
2023-02-28T02:08:54.587Z,7.45
2023-02-28T02:11:23.429Z,7.80
2023-02-28T02:13:57.405Z,7.90
2023-02-28T02:16:39.512Z,7.95
2023-02-28T02:19:16.059Z,7.68
2023-02-28T02:21:57.637Z,9.27
2023-02-28T02:24:39.991Z,6.45
2023-02-28T02:27:22.302Z,7.80
2023-02-28T02:30:07.537Z,7.22
2023-02-28T02:32:50.688Z,9.25
2023-02-28T02:35:24.940Z,9.25
2023-02-28T02:37:54.682Z,7.20
2023-02-28T02:40:24.297Z,6.95
2023-02-28T02:42:53.874Z,9.02
2023-02-28T02:45:24.796Z,7.07
2023-02-28T02:47:52.717Z,9.77
2023-02-28T02:50:24.633Z,6.95
2023-02-28T02:52:54.509Z,8.15
2023-02-28T02:55:22.585Z,7.75
2023-02-28T02:57:51.688Z,7.35
2023-02-28T03:00:21.821Z,8.50
2023-02-28T03:02:49.512Z,9.02
2023-02-28T03:05:19.284Z,6.38
2023-02-28T03:07:48.157Z,8.10
2023-02-28T03:10:30.245Z,10.10
2023-02-28T03:13:00.723Z,6.90
2023-02-28T03:15:29.082Z,7.13
2023-02-28T03:18:01.619Z,8.52
2023-02-28T03:20:34.433Z,7.95
2023-02-28T03:23:09.510Z,5.63
2023-02-28T03:25:40.279Z,8.40
2023-02-28T03:28:11.080Z,10.20
2023-02-28T03:30:43.583Z,6.30
2023-02-28T03:33:13.940Z,8.75
2023-02-28T03:35:44.542Z,9.35
2023-02-28T03:38:16.555Z,9.98
2023-02-28T03:40:47.276Z,7.82
2023-02-28T03:43:16.225Z,7.72
2023-02-28T03:45:45.796Z,8.30
2023-02-28T03:48:15.828Z,8.88
2023-02-28T03:50:44.723Z,7.72
2023-02-28T03:53:17.489Z,8.50
2023-02-28T03:55:47.764Z,7.85
2023-02-28T03:58:17.882Z,8.02
2023-02-28T04:00:47.566Z,8.68
2023-02-28T04:03:15.576Z,7.20
2023-02-28T04:05:52.113Z,7.20
2023-02-28T04:08:19.743Z,8.95
2023-02-28T04:10:52.108Z,11.77
2023-02-28T04:13:19.604Z,6.53
2023-02-28T04:15:47.131Z,10.25
2023-02-28T04:18:14.672Z,8.77
2023-02-28T04:20:42.127Z,8.00
2023-02-28T04:23:09.669Z,7.18
2023-02-28T04:25:37.154Z,7.60
2023-02-28T04:28:06.264Z,7.03
2023-02-28T04:30:34.073Z,7.40
2023-02-28T04:33:02.951Z,7.78
2023-02-28T04:35:30.448Z,7.57
2023-02-28T04:37:57.941Z,8.32
2023-02-28T04:40:25.430Z,7.57
2023-02-28T04:42:52.981Z,8.95
2023-02-28T04:45:21.829Z,8.55
2023-02-28T04:47:49.332Z,9.68
2023-02-28T04:50:17.025Z,10.82
2023-02-28T04:52:44.478Z,9.50
2023-02-28T04:55:12.053Z,11.05
2023-02-28T04:57:39.549Z,10.27
2023-02-28T05:00:12.405Z,8.52
2023-02-28T05:02:41.368Z,8.68
2023-02-28T05:05:08.938Z,10.00
2023-02-28T05:07:36.484Z,9.63
2023-02-28T05:10:04.685Z,8.63
2023-02-28T05:12:33.377Z,11.38
2023-02-28T05:15:02.059Z,7.22
2023-02-28T05:17:29.626Z,10.73
2023-02-28T05:20:09.795Z,8.27
2023-02-28T05:22:42.990Z,7.47
2023-02-28T05:25:10.832Z,9.07
2023-02-28T05:27:38.305Z,10.57
2023-02-28T05:30:06.989Z,9.05
2023-02-28T05:32:34.505Z,9.30
2023-02-28T05:35:03.390Z,9.77
2023-02-28T05:37:30.844Z,9.65
2023-02-28T05:39:58.392Z,10.70
2023-02-28T05:42:25.941Z,9.82
2023-02-28T05:44:53.464Z,9.50
2023-02-28T05:47:20.962Z,8.63
2023-02-28T05:49:48.448Z,9.95
2023-02-28T05:52:17.333Z,9.35
2023-02-28T05:54:45.051Z,11.23
2023-02-28T05:57:23.974Z,9.18
2023-02-28T05:59:52.155Z,8.25
2023-02-28T06:02:19.978Z,8.35
2023-02-28T06:04:47.476Z,10.48
2023-02-28T06:07:14.985Z,9.65
2023-02-28T06:09:43.867Z,10.43
2023-02-28T06:12:12.104Z,9.07
2023-02-28T06:14:39.616Z,12.60
2023-02-28T06:17:07.285Z,11.35
2023-02-28T06:19:34.845Z,11.65
2023-02-28T06:22:02.264Z,10.48
2023-02-28T06:24:32.529Z,9.48
2023-02-28T06:27:05.797Z,8.98
2023-02-28T06:29:33.670Z,10.02
2023-02-28T06:32:01.278Z,8.30
2023-02-28T06:34:28.809Z,10.82
2023-02-28T06:36:56.307Z,10.73
2023-02-28T06:39:23.829Z,15.30
2023-02-28T06:41:55.795Z,10.50
2023-02-28T06:44:25.642Z,11.52
2023-02-28T06:46:53.155Z,12.35
2023-02-28T06:49:20.687Z,10.55
2023-02-28T06:51:48.247Z,9.38
2023-02-28T06:54:16.114Z,13.90
2023-02-28T06:56:43.628Z,8.90
2023-02-28T06:59:11.103Z,11.95
2023-02-28T07:01:40.018Z,12.57
2023-02-28T07:04:08.056Z,8.80
2023-02-28T07:06:35.710Z,11.68
2023-02-28T07:09:03.905Z,11.73
2023-02-28T07:11:31.753Z,13.40
2023-02-28T07:13:59.395Z,14.57
2023-02-28T07:16:27.288Z,12.63
2023-02-28T07:18:56.848Z,9.93
2023-02-28T07:21:24.442Z,14.00
2023-02-28T07:23:52.349Z,14.63
2023-02-28T07:26:20.546Z,17.02
2023-02-28T07:28:49.584Z,10.90
2023-02-28T07:31:18.083Z,12.43
2023-02-28T07:33:45.679Z,13.80
2023-02-28T07:36:16.268Z,12.50
2023-02-28T07:38:46.355Z,11.85
2023-02-28T07:41:15.669Z,12.05
2023-02-28T07:43:43.660Z,15.48
2023-02-28T07:46:12.107Z,8.15
2023-02-28T07:48:39.710Z,10.98
2023-02-28T07:51:07.541Z,10.57
2023-02-28T07:53:36.470Z,10.90
2023-02-28T07:56:04.298Z,9.63
2023-02-28T07:58:32.237Z,11.63
2023-02-28T08:01:06.453Z,11.93
2023-02-28T08:03:33.917Z,11.60
2023-02-28T08:06:01.429Z,9.90
2023-02-28T08:08:32.196Z,8.65
2023-02-28T08:11:02.388Z,9.55
2023-02-28T08:13:30.260Z,11.00
2023-02-28T08:15:58.064Z,8.88
2023-02-28T08:18:25.612Z,8.70
2023-02-28T08:20:53.164Z,14.80
2023-02-28T08:23:21.049Z,10.35
2023-02-28T08:25:54.717Z,9.98
2023-02-28T08:28:25.047Z,9.82
2023-02-28T08:30:54.672Z,8.63
2023-02-28T08:33:22.375Z,8.52
2023-02-28T08:35:49.922Z,8.35
2023-02-28T08:38:17.448Z,9.02
2023-02-28T08:40:44.982Z,6.97
2023-02-28T08:43:12.444Z,10.02
2023-02-28T08:45:41.449Z,8.68
2023-02-28T08:48:08.963Z,9.63
2023-02-28T08:50:36.494Z,9.38
2023-02-28T08:53:04.071Z,6.72
2023-02-28T08:55:31.622Z,9.07
2023-02-28T08:57:59.355Z,6.07
2023-02-28T09:00:26.960Z,5.15
2023-02-28T09:02:55.819Z,7.03
2023-02-28T09:05:23.987Z,5.43
2023-02-28T09:07:51.636Z,4.38
2023-02-28T09:10:19.389Z,6.40
2023-02-28T09:12:47.940Z,5.15
2023-02-28T09:15:15.483Z,6.85
2023-02-28T09:17:45.685Z,5.55
2023-02-28T09:22:42.898Z,6.60
2023-02-28T09:25:10.418Z,6.25
2023-02-28T09:27:38.132Z,4.68
2023-02-28T09:30:05.949Z,5.45
2023-02-28T09:32:34.169Z,4.88
2023-02-28T09:35:01.675Z,4.80
2023-02-28T09:37:30.250Z,4.85
2023-02-28T09:39:59.095Z,5.25
2023-02-28T09:42:31.843Z,5.65
2023-02-28T09:45:00.448Z,7.35
2023-02-28T09:47:32.080Z,3.90
2023-02-28T09:50:00.527Z,2.78
2023-02-28T09:52:30.732Z,2.97
2023-02-28T09:55:01.394Z,5.40
2023-02-28T09:57:33.879Z,4.00
2023-02-28T10:00:11.191Z,4.05
2023-02-28T10:02:48.274Z,3.85
2023-02-28T10:05:17.125Z,3.60
2023-02-28T10:07:50.773Z,2.88
2023-02-28T10:10:24.149Z,7.90
2023-02-28T10:12:53.362Z,3.67
2023-02-28T10:15:22.084Z,6.00
2023-02-28T10:17:55.603Z,4.25
2023-02-28T10:20:35.307Z,10.25
2023-02-28T10:23:08.431Z,4.13
2023-02-28T10:25:38.597Z,5.47
2023-02-28T10:28:16.774Z,4.95
2023-02-28T10:30:45.708Z,5.18
2023-02-28T10:33:21.354Z,6.15
2023-02-28T10:35:49.131Z,3.85
2023-02-28T10:38:18.402Z,3.95
2023-02-28T10:40:47.541Z,3.47
2023-02-28T10:43:20.978Z,3.58
2023-02-28T10:45:55.126Z,4.78
2023-02-28T10:48:31.676Z,3.47
2023-02-28T10:51:00.241Z,8.70
2023-02-28T10:53:36.148Z,4.47
2023-02-28T10:56:17.755Z,4.35
2023-02-28T10:58:49.276Z,7.20
2023-02-28T11:01:18.725Z,6.20
2023-02-28T11:03:46.630Z,3.75
2023-02-28T11:06:21.246Z,3.90
2023-02-28T11:08:50.602Z,4.68
2023-02-28T11:11:19.911Z,4.63
2023-02-28T11:13:48.877Z,4.18
2023-02-28T11:16:17.229Z,3.97
2023-02-28T11:18:48.664Z,4.47
2023-02-28T11:21:22.020Z,3.63
2023-02-28T11:23:51.511Z,3.75
2023-02-28T11:26:37.809Z,6.57
2023-02-28T11:29:10.658Z,4.65
2023-02-28T11:31:38.179Z,3.25
2023-02-28T11:34:23.115Z,4.75
2023-02-28T11:36:50.631Z,3.88
2023-02-28T11:39:19.425Z,4.43
2023-02-28T11:42:07.965Z,4.00
2023-02-28T11:44:45.046Z,4.97
2023-02-28T11:47:17.604Z,4.75
2023-02-28T11:49:50.155Z,5.88
2023-02-28T11:52:23.018Z,5.03
2023-02-28T11:54:56.520Z,6.47
2023-02-28T11:57:33.722Z,4.82
2023-02-28T12:00:06.703Z,4.95
2023-02-28T12:02:37.888Z,4.22
2023-02-28T12:05:14.565Z,6.70
2023-02-28T12:07:48.202Z,3.30
2023-02-28T12:10:20.033Z,4.93
2023-02-28T12:12:53.481Z,4.93
2023-02-28T12:15:28.988Z,5.10
2023-02-28T12:18:01.704Z,4.43
2023-02-28T12:20:34.405Z,5.38
2023-02-28T12:23:09.395Z,4.65
2023-02-28T12:25:44.471Z,3.90
2023-02-28T12:28:12.900Z,4.13
2023-02-28T12:30:44.980Z,4.30
2023-02-28T12:33:14.355Z,3.42
2023-02-28T12:35:46.781Z,5.43
2023-02-28T12:38:18.616Z,3.10
2023-02-28T12:40:48.299Z,4.90
2023-02-28T12:43:16.969Z,6.57
2023-02-28T12:45:49.538Z,4.22
2023-02-28T12:48:20.654Z,3.95
2023-02-28T12:50:49.625Z,4.63
2023-02-28T12:53:20.576Z,5.28
2023-02-28T12:55:51.449Z,5.07
2023-02-28T13:00:54.265Z,4.13
2023-02-28T13:03:42.502Z,7.10
2023-02-28T13:06:17.620Z,4.60
2023-02-28T13:08:59.256Z,6.35
2023-02-28T13:11:27.771Z,4.68
2023-02-28T13:13:59.660Z,4.85
2023-02-28T13:16:28.637Z,5.57
2023-02-28T13:19:09.970Z,6.05
2023-02-28T13:21:44.893Z,4.75
2023-02-28T13:24:12.756Z,5.55
2023-02-28T13:26:58.965Z,9.45
2023-02-28T13:29:38.541Z,4.57
2023-02-28T13:32:30.185Z,6.30
2023-02-28T13:35:30.555Z,4.70
2023-02-28T13:38:11.504Z,4.05
2023-02-28T13:40:39.245Z,4.60
2023-02-28T13:43:09.967Z,5.00
2023-02-28T13:45:39.426Z,5.45
2023-02-28T13:48:17.304Z,5.93
2023-02-28T13:50:46.035Z,4.45
2023-02-28T13:53:34.208Z,6.15
2023-02-28T13:56:05.174Z,3.72
2023-02-28T13:58:43.050Z,4.82
2023-02-28T14:01:16.974Z,5.78
2023-02-28T14:03:53.409Z,5.35
2023-02-28T14:06:25.682Z,3.70
2023-02-28T14:08:57.991Z,4.97
2023-02-28T14:11:27.699Z,5.38
2023-02-28T14:13:55.170Z,3.90
2023-02-28T14:16:23.689Z,4.18
2023-02-28T14:18:56.799Z,3.80
2023-02-28T14:21:26.707Z,3.80
2023-02-28T14:24:25.309Z,4.43
2023-02-28T14:27:10.516Z,5.13
2023-02-28T14:29:44.046Z,4.28
2023-02-28T14:32:16.987Z,4.00
2023-02-28T14:34:51.525Z,4.43
2023-02-28T14:37:31.117Z,6.25
2023-02-28T14:39:59.544Z,7.05
2023-02-28T14:42:29.702Z,6.72
2023-02-28T14:44:57.352Z,5.53
2023-02-28T14:47:25.967Z,4.45
2023-02-28T14:49:54.978Z,4.63
2023-02-28T14:52:24.168Z,7.07
2023-02-28T14:54:54.312Z,4.75
2023-02-28T14:57:26.244Z,4.70
2023-02-28T15:00:00.643Z,6.97
2023-02-28T15:02:32.050Z,5.32
2023-02-28T15:05:01.703Z,4.45
2023-02-28T15:07:32.467Z,6.25
2023-02-28T15:10:15.508Z,4.65
2023-02-28T15:12:43.825Z,5.82
2023-02-28T15:15:16.922Z,4.97
2023-02-28T15:17:46.850Z,4.55
2023-02-28T15:20:17.168Z,5.43
2023-02-28T15:22:45.179Z,5.20
2023-02-28T15:25:15.414Z,5.82
2023-02-28T15:30:15.491Z,5.22
2023-02-28T15:32:43.171Z,5.82
2023-02-28T15:35:22.788Z,6.90
2023-02-28T15:37:54.077Z,5.18
2023-02-28T15:40:25.548Z,4.57
2023-02-28T15:43:05.942Z,5.95
2023-02-28T15:45:42.136Z,5.20
2023-02-28T15:48:16.341Z,5.15
2023-02-28T15:50:45.264Z,5.90
2023-02-28T15:53:17.430Z,4.35
2023-02-28T15:55:45.517Z,4.32
2023-02-28T15:58:13.823Z,4.03
2023-02-28T16:00:41.728Z,4.88
2023-02-28T16:03:24.916Z,5.78
2023-02-28T16:06:07.268Z,5.30
2023-02-28T16:08:36.109Z,6.10
2023-02-28T16:11:03.608Z,5.95
2023-02-28T16:13:31.145Z,5.30
2023-02-28T16:16:00.408Z,7.70
2023-02-28T16:18:27.938Z,4.80
2023-02-28T16:20:55.435Z,5.57
2023-02-28T16:23:23.013Z,5.25
2023-02-28T16:25:52.049Z,5.85
2023-02-28T16:28:21.148Z,5.38
2023-02-28T16:30:48.680Z,5.03
2023-02-28T16:33:16.209Z,8.25
2023-02-28T16:35:43.693Z,10.20
2023-02-28T16:38:11.130Z,8.90
2023-02-28T16:40:38.836Z,6.72
2023-02-28T16:43:10.520Z,8.32
2023-02-28T16:45:38.201Z,7.00
2023-02-28T16:48:05.815Z,6.90
2023-02-28T16:50:34.091Z,6.43
2023-02-28T16:53:01.706Z,5.90
2023-02-28T16:55:29.409Z,8.23
2023-02-28T16:57:57.831Z,7.28
2023-02-28T17:00:26.906Z,10.80
2023-02-28T17:02:54.877Z,9.95
2023-02-28T17:05:22.954Z,7.05
2023-02-28T17:07:50.648Z,6.70
2023-02-28T17:10:19.212Z,7.03
2023-02-28T17:12:46.692Z,6.53
2023-02-28T17:15:15.026Z,5.57
2023-02-28T17:17:44.767Z,8.40
2023-02-28T17:20:14.471Z,9.38
2023-02-28T17:22:42.032Z,7.68
2023-02-28T17:25:10.653Z,11.40
2023-02-28T17:27:38.138Z,7.63
2023-02-28T17:30:11.077Z,8.23
2023-02-28T17:32:38.612Z,7.57
2023-02-28T17:35:08.456Z,6.47
2023-02-28T17:37:36.089Z,10.20
2023-02-28T17:40:03.896Z,10.60
2023-02-28T17:42:31.390Z,12.35
2023-02-28T17:44:58.861Z,9.43
2023-02-28T17:47:26.365Z,9.38
2023-02-28T17:49:53.825Z,8.60
2023-02-28T17:52:23.498Z,8.45
2023-02-28T17:54:50.974Z,8.95
2023-02-28T17:57:18.556Z,8.95
2023-02-28T17:59:46.053Z,8.18
2023-02-28T18:02:14.055Z,10.70
2023-02-28T18:04:41.645Z,9.02
2023-02-28T18:07:11.298Z,7.88
2023-02-28T18:09:40.182Z,7.90
2023-02-28T18:12:07.974Z,9.30
2023-02-28T18:14:35.512Z,9.15
2023-02-28T18:17:04.133Z,9.45
2023-02-28T18:19:31.585Z,10.13
2023-02-28T18:21:59.234Z,9.27
2023-02-28T18:24:26.716Z,9.52
2023-02-28T18:26:55.584Z,9.32
2023-02-28T18:29:23.860Z,7.90
2023-02-28T18:31:51.681Z,9.93
2023-02-28T18:34:20.591Z,10.32
2023-02-28T18:36:48.538Z,12.55
2023-02-28T18:39:16.216Z,11.30
2023-02-28T18:41:43.733Z,13.90
2023-02-28T18:44:19.765Z,13.30
2023-02-28T18:46:48.325Z,10.57
2023-02-28T18:49:15.892Z,11.35
2023-02-28T18:51:45.118Z,11.55
2023-02-28T18:54:13.218Z,12.07
2023-02-28T18:56:40.768Z,10.45
2023-02-28T18:59:08.361Z,13.13
2023-02-28T19:01:37.234Z,15.43
2023-02-28T19:04:05.249Z,16.05
2023-02-28T19:06:33.382Z,12.85
2023-02-28T19:09:02.016Z,17.13
2023-02-28T19:11:29.931Z,10.52
2023-02-28T19:13:57.705Z,11.02
2023-02-28T19:16:25.533Z,12.70
2023-02-28T19:18:54.722Z,18.50
2023-02-28T19:21:24.696Z,15.00
2023-02-28T19:23:52.300Z,14.25
2023-02-28T19:26:20.800Z,16.83
2023-02-28T19:28:48.303Z,15.10
2023-02-28T19:31:16.323Z,14.38
2023-02-28T19:33:43.841Z,12.27
2023-02-28T19:36:13.517Z,12.50
2023-02-28T19:38:41.357Z,11.93
2023-02-28T19:41:09.807Z,14.00
2023-02-28T19:43:37.790Z,13.07
2023-02-28T19:46:06.385Z,14.95
2023-02-28T19:48:34.008Z,12.45
2023-02-28T19:51:02.416Z,14.75
2023-02-28T19:53:32.199Z,13.38
2023-02-28T19:56:00.355Z,15.20
2023-02-28T19:58:28.355Z,16.70
2023-02-28T20:00:55.897Z,15.23
2023-02-28T20:03:23.833Z,13.63
2023-02-28T20:06:00.086Z,13.43
2023-02-28T20:08:27.594Z,15.50
2023-02-28T20:10:56.473Z,19.70
2023-02-28T20:13:27.988Z,14.02
2023-02-28T20:15:55.944Z,14.18
2023-02-28T20:18:23.408Z,17.10
2023-02-28T20:20:51.331Z,14.20
2023-02-28T20:23:18.826Z,15.80
2023-02-28T20:25:46.347Z,16.05
2023-02-28T20:28:15.238Z,17.30
2023-02-28T20:30:42.787Z,17.20
2023-02-28T20:33:10.398Z,15.23
2023-02-28T20:35:37.974Z,17.70
2023-02-28T20:38:05.506Z,19.55
2023-02-28T20:40:33.002Z,15.10
2023-02-28T20:43:00.512Z,16.08
2023-02-28T20:45:29.417Z,20.73
2023-02-28T20:47:56.911Z,16.98
2023-02-28T20:50:24.521Z,22.65
2023-02-28T20:52:52.100Z,18.77
2023-02-28T20:55:20.433Z,21.75
2023-02-28T20:57:49.860Z,25.67
2023-02-28T21:00:19.311Z,28.90
2023-02-28T21:02:48.326Z,20.67
2023-02-28T21:05:15.952Z,25.13
2023-02-28T21:07:43.456Z,21.27
2023-02-28T21:10:11.584Z,19.08
2023-02-28T21:12:39.102Z,18.08
2023-02-28T21:15:07.029Z,19.48
2023-02-28T21:17:34.551Z,19.67
2023-02-28T21:20:03.747Z,17.63
2023-02-28T21:22:31.281Z,23.33
2023-02-28T21:24:58.793Z,18.00
2023-02-28T21:27:26.309Z,19.13
2023-02-28T21:29:53.807Z,16.52
2023-02-28T21:32:21.376Z,19.58
2023-02-28T21:34:48.922Z,15.27
2023-02-28T21:37:17.872Z,16.80
2023-02-28T21:39:46.269Z,21.88
2023-02-28T21:42:13.738Z,25.42
2023-02-28T21:44:41.278Z,24.05
2023-02-28T21:47:08.820Z,25.50
2023-02-28T21:49:37.570Z,27.20
2023-02-28T21:52:05.122Z,27.50
2023-02-28T21:54:33.954Z,25.73
2023-02-28T21:57:01.855Z,23.58
2023-02-28T21:59:29.539Z,23.17
2023-02-28T22:01:57.078Z,22.77
2023-02-28T22:04:24.890Z,22.30
2023-02-28T22:06:53.109Z,24.08
2023-02-28T22:09:20.701Z,19.02
2023-02-28T22:11:49.960Z,18.70
2023-02-28T22:14:17.531Z,21.35
2023-02-28T22:16:54.523Z,19.75
2023-02-28T22:19:23.338Z,22.85
2023-02-28T22:21:51.601Z,25.17
2023-02-28T22:24:23.929Z,30.25
2023-02-28T22:26:53.368Z,39.17
2023-02-28T22:29:21.050Z,38.22
2023-02-28T22:31:48.780Z,30.70
2023-02-28T22:34:16.365Z,25.13
2023-02-28T22:36:44.449Z,36.35
2023-02-28T22:39:12.273Z,36.55
2023-02-28T22:41:39.846Z,30.17
2023-02-28T22:44:08.691Z,34.75
2023-02-28T22:46:36.753Z,40.55
2023-02-28T22:49:05.640Z,44.78
2023-02-28T22:51:33.653Z,44.65
2023-02-28T22:54:01.938Z,34.33
2023-02-28T22:56:30.359Z,34.50
2023-02-28T22:58:58.670Z,40.25
2023-02-28T23:01:28.097Z,39.10
2023-02-28T23:03:56.053Z,38.05
2023-02-28T23:06:24.675Z,41.33
2023-02-28T23:08:53.263Z,33.60
2023-02-28T23:11:21.863Z,29.02
2023-02-28T23:13:58.415Z,36.70
2023-02-28T23:16:33.511Z,25.27
2023-02-28T23:19:02.223Z,29.15
2023-02-28T23:21:29.954Z,33.63
2023-02-28T23:23:57.683Z,33.65
2023-02-28T23:26:25.410Z,33.58
2023-02-28T23:28:52.979Z,31.75
2023-02-28T23:31:21.147Z,35.67
2023-02-28T23:33:50.077Z,33.97
2023-02-28T23:36:18.065Z,33.60
2023-02-28T23:38:47.456Z,34.00
2023-02-28T23:41:15.308Z,28.63
2023-02-28T23:43:42.777Z,29.05
2023-02-28T23:46:11.576Z,30.83
2023-02-28T23:48:39.325Z,26.10
2023-02-28T23:51:09.293Z,34.28
2023-02-28T23:53:37.354Z,41.65
2023-02-28T23:56:05.035Z,37.15
2023-02-28T23:58:32.517Z,54.22
